Latest Weather Observations for Mildura

IDV60801

Issued at 8:42 pm EDT Thursday 21 February 2019 (issued every 10 minutes, with the page automatically refreshed every 10 minutes)

About weather observations | Map of weather stations | Latest weather observations for VIC | Other Formats
Station Details ID: 076031 Name: MILDURA AIRPORT Lat: -34.24 Lon: 142.09 Height: 50.0 m
Data from the previous 72 hours. | See also: Recent months at Mildura
Date/Time
EDT
Temp
°C
App
Temp
°C
Dew
Point
°C
Rel
Hum
%
Delta-T
°C
Wind Press
QNH
hPa
Press
MSL
hPa
Rain since
9am
mm
Dir  Spd
km/h
Gust
km/h
Spd
kts
Gust
kts
21/08:30pm 26.3 22.7 2.9 22 11.5 SSE 11 19 6 10 1017.1 1016.9 0.0
21/08:00pm 27.2 22.9 3.0 21 12.0 SSE 15 22 8 12 1016.9 1016.7 0.0
21/07:30pm 28.1 23.2 2.3 19 12.7 SSE 17 24 9 13 1016.7 1016.5 0.0
21/07:00pm 28.5 23.2 1.9 18 13.0 SSE 19 28 10 15 1016.6 1016.4 0.0
21/06:30pm 29.2 24.4 2.5 18 13.3 S 17 28 9 15 1016.6 1016.4 0.0
21/06:00pm 28.6 23.1 2.0 18 13.0 S 20 30 11 16 1016.7 1016.5 0.0
21/05:30pm 28.7 23.2 2.1 18 13.1 SSE 20 32 11 17 1016.8 1016.6 0.0
21/05:00pm 28.4 23.0 2.6 19 12.8 SSE 20 32 11 17 1016.9 1016.7 0.0
21/04:30pm 28.2 22.7 3.8 21 12.3 S 22 35 12 19 1016.9 1016.7 0.0
21/04:00pm 27.4 22.7 3.2 21 12.0 S 17 28 9 15 1017.3 1017.1 0.0
21/03:30pm 27.9 23.0 4.2 22 12.0 S 19 28 10 15 1018.0 1017.7 0.0
21/03:00pm 26.7 21.9 4.5 24 11.2 SSW 19 28 10 15 1018.4 1018.1 0.0
21/02:30pm 26.0 21.3 5.0 26 10.7 S 19 32 10 17 1018.8 1018.5 0.0
21/02:00pm 25.1 20.1 4.8 27 10.2 S 20 32 11 17 1019.2 1018.9 0.0
21/01:30pm 24.6 20.6 4.9 28 9.9 S 15 28 8 15 1019.4 1019.1 0.0
21/01:00pm 23.7 19.2 6.0 32 9.0 S 19 30 10 16 1019.7 1019.4 0.0
21/12:30pm 22.7 18.6 6.0 34 8.5 S 17 24 9 13 1020.2 1019.9 0.0
21/12:00pm 22.1 18.0 6.3 36 8.0 S 17 28 9 15 1020.5 1020.2 0.0
21/11:30am 21.5 17.6 7.0 39 7.4 SSE 17 26 9 14 1020.6 1020.3 0.0
21/11:00am 20.5 16.2 7.2 42 6.8 SSE 19 28 10 15 1020.7 1020.4 0.0
21/10:30am 19.6 15.4 8.3 48 5.9 SSE 20 28 11 15 1020.5 1020.2 0.0
21/10:00am 18.5 14.3 8.2 51 5.3 SSE 20 32 11 17 1020.3 1020.0 0.0
21/09:30am 17.5 13.5 8.4 55 4.7 S 19 30 10 16 1020.3 1020.0 0.0
21/09:00am 16.5 13.0 8.7 60 4.0 S 17 22 9 12 1020.0 1019.7 0.0
21/08:30am 15.4 11.9 8.9 65 3.3 S 17 22 9 12 1019.7 1019.4 0.0
21/08:00am 14.5 11.4 8.7 68 2.9 S 15 20 8 11 1019.3 1019.0 0.0
21/07:30am 13.7 11.3 8.5 71 2.6 S 11 17 6 9 1019.0 1018.7 0.0
21/07:00am 13.8 11.0 8.6 71 2.6 SSW 13 19 7 10 1018.6 1018.3 0.0
21/06:30am 14.1 11.7 8.5 69 2.8 SSW 11 17 6 9 1018.5 1018.2 0.0
21/06:00am 14.7 12.2 8.4 66 3.2 SSW 11 17 6 9 1018.0 1017.7 0.0
21/05:30am 15.2 12.4 8.7 65 3.3 S 13 20 7 11 1017.7 1017.4 0.0
21/05:00am 15.8 12.7 8.8 63 3.6 S 15 24 8 13 1017.5 1017.3 0.0
21/04:30am 16.3 12.7 8.5 60 4.0 S 17 26 9 14 1017.3 1017.1 0.0
21/04:00am 16.7 13.6 8.7 59 4.1 S 15 26 8 14 1017.2 1017.0 0.0
21/03:30am 17.3 13.8 8.7 57 4.4 S 17 30 9 16 1017.1 1016.9 0.0
21/03:00am 18.0 14.2 9.1 56 4.6 S 19 28 10 15 1017.1 1016.9 0.0
21/02:30am 18.5 15.1 9.3 55 4.8 S 17 26 9 14 1017.1 1016.9 0.0
21/02:00am 18.9 15.2 9.4 54 5.0 SSW 19 28 10 15 1017.2 1017.0 0.0
21/01:30am 19.5 16.2 9.4 52 5.4 S 17 30 9 16 1017.2 1017.0 0.0
21/01:00am 20.2 16.5 9.5 50 5.7 S 19 32 10 17 1017.0 1016.8 0.0
21/12:30am 20.7 17.0 9.6 49 5.9 S 19 28 10 15 1016.8 1016.6 0.0
21/12:00am 21.4 17.7 9.6 47 6.3 S 19 32 10 17 1016.7 1016.5 0.0
 
Date/Time
EDT
Temp
°C
App
Temp
°C
Dew
Point
°C
Rel
Hum
%
Delta-T
°C
Wind Press
QNH
hPa
Press
MSL
hPa
Rain since
9am
mm
Dir  Spd
km/h
Gust
km/h
Spd
kts
Gust
kts
20/11:30pm 22.4 18.4 9.2 43 7.1 S 20 33 11 18 1016.5 1016.3 0.0
20/11:00pm 22.8 19.3 8.9 41 7.4 SSW 17 28 9 15 1016.3 1016.1 0.0
20/10:30pm 23.5 19.5 6.7 34 8.7 SSW 17 24 9 13 1016.2 1016.0 0.0
20/10:00pm 23.5 20.3 4.9 30 9.3 SSW 11 15 6 8 1015.8 1015.6 0.0
20/09:30pm 23.9 21.0 4.8 29 9.6 SSW 9 13 5 7 1015.2 1015.0 0.0
20/09:00pm 24.9 22.1 5.2 28 10.0 SSW 9 13 5 7 1014.9 1014.7 0.0
20/08:30pm 25.9 22.3 4.9 26 10.7 SW 13 22 7 12 1014.6 1014.4 0.0
20/08:00pm 26.7 22.6 4.5 24 11.2 SSW 15 22 8 12 1014.4 1014.2 0.0
20/07:30pm 27.4 23.2 3.8 22 11.9 SSW 15 22 8 12 1014.3 1014.1 0.0
20/07:00pm 27.7 22.8 4.1 22 11.9 SSW 19 30 10 16 1014.2 1014.0 0.0
20/06:30pm 27.9 22.9 3.6 21 12.2 S 19 30 10 16 1014.0 1013.8 0.0
20/06:00pm 27.8 22.8 3.5 21 12.2 SSW 19 30 10 16 1014.0 1013.8 0.0
20/05:30pm 27.4 23.6 3.8 22 11.9 SW 13 26 7 14 1014.0 1013.8 0.0
20/05:00pm 27.4 23.2 3.8 22 11.9 SSW 15 26 8 14 1014.1 1013.9 0.0
20/04:30pm 26.3 21.6 2.9 22 11.5 SSW 17 33 9 18 1014.3 1014.1 0.0
20/04:00pm 25.9 20.9 3.8 24 11.0 SW 19 32 10 17 1014.6 1014.4 0.0
20/03:30pm 25.5 20.9 3.5 24 10.9 SSW 17 30 9 16 1015.0 1014.8 0.0
20/03:00pm 25.6 21.8 4.1 25 10.7 SSW 13 20 7 11 1015.4 1015.2 0.0
20/02:30pm 24.2 21.0 5.1 29 9.6 SSW 11 28 6 15 1015.8 1015.6 0.0
20/02:00pm 24.7 20.3 5.0 28 9.9 SSW 17 28 9 15 1016.1 1015.9 0.0
20/01:30pm 22.8 18.8 4.8 31 8.9 S 15 26 8 14 1016.3 1016.1 0.0
20/01:00pm 22.6 18.9 4.6 31 8.9 SSW 13 28 7 15 1016.9 1016.7 0.0
20/12:30pm 20.9 17.3 4.9 35 7.9 SSW 13 22 7 12 1017.2 1017.0 0.0
20/12:00pm 20.6 17.1 5.4 37 7.5 SSE 13 20 7 11 1017.5 1017.3 0.0
20/11:30am 20.1 16.7 5.7 39 7.1 S 13 24 7 13 1017.7 1017.4 0.0
20/11:00am 19.2 15.7 5.6 41 6.7 SSE 13 22 7 12 1017.9 1017.6 0.0
20/10:30am 18.5 14.8 6.4 45 6.0 S 15 24 8 13 1017.9 1017.6 0.0
20/10:00am 17.8 13.3 6.3 47 5.7 SSE 19 26 10 14 1017.9 1017.6 0.0
20/09:30am 16.5 12.4 6.3 51 5.0 S 17 26 9 14 1017.8 1017.5 0.0
20/09:00am 15.7 12.0 6.2 53 4.6 S 15 20 8 11 1017.3 1017.1 0.0
20/08:30am 14.3 10.6 6.2 58 3.9 S 15 22 8 12 1017.0 1016.8 0.0
20/08:00am 12.9 9.1 6.0 63 3.3 SSW 15 20 8 11 1016.8 1016.6 0.0
20/07:30am 12.3 9.3 5.9 65 3.0 SSW 11 17 6 9 1016.6 1016.4 0.0
20/07:00am 12.7 9.3 5.8 63 3.2 SSW 13 19 7 10 1016.4 1016.2 0.0
20/06:30am 13.3 9.5 5.9 61 3.5 SSW 15 22 8 12 1016.2 1016.0 0.0
20/06:00am 13.8 9.6 5.9 59 3.8 SSW 17 24 9 13 1016.0 1015.8 0.0
20/05:30am 13.9 10.1 5.8 58 3.8 S 15 22 8 12 1015.9 1015.7 0.0
20/05:00am 14.1 10.7 5.7 57 4.0 SSW 13 19 7 10 1015.7 1015.5 0.0
20/04:30am 14.6 11.2 5.7 55 4.2 SSW 13 22 7 12 1015.5 1015.3 0.0
20/04:00am 15.1 11.6 5.6 53 4.5 SSW 13 22 7 12 1015.3 1015.1 0.0
20/03:30am 15.6 11.7 5.5 51 4.8 SSW 15 24 8 13 1015.2 1015.0 0.0
20/03:00am 16.1 11.7 4.8 47 5.3 SSW 17 24 9 13 1015.2 1015.0 0.0
20/02:30am 16.4 12.3 4.4 45 5.6 SSW 15 22 8 12 1015.2 1015.0 0.0
20/02:00am 16.9 12.8 4.6 44 5.8 SSW 15 22 8 12 1015.2 1015.0 0.0
20/01:30am 17.6 13.1 4.2 41 6.3 SSW 17 28 9 15 1015.2 1015.0 0.0
20/01:00am 18.3 13.2 4.1 39 6.7 SSW 20 32 11 17 1015.3 1015.1 0.0
20/12:30am 18.9 14.0 3.9 37 7.1 SSW 19 32 10 17 1015.2 1015.0 0.0
20/12:00am 19.7 14.5 3.8 35 7.6 SSW 20 37 11 20 1015.3 1015.1 0.0
 
Date/Time
EDT
Temp
°C
App
Temp
°C
Dew
Point
°C
Rel
Hum
%
Delta-T
°C
Wind Press
QNH
hPa
Press
MSL
hPa
Rain since
9am
mm
Dir  Spd
km/h
Gust
km/h
Spd
kts
Gust
kts
19/11:30pm 20.7 16.2 4.3 34 7.9 SSW 17 26 9 14 1015.2 1015.0 0.0
19/11:00pm 21.0 16.4 3.7 32 8.3 SW 17 24 9 13 1014.9 1014.7 0.0
19/10:30pm 20.5 17.4 3.7 33 8.0 SW 9 11 5 6 1014.5 1014.3 0.0
19/10:00pm 20.6 17.9 3.8 33 8.1 SW 7 9 4 5 1014.2 1014.0 0.0
19/09:30pm 21.6 18.4 3.3 30 8.8 SW 9 11 5 6 1013.9 1013.7 0.0
19/09:00pm 22.7 19.5 2.8 27 9.5 SW 9 13 5 7 1013.5 1013.3 0.0
19/08:30pm 23.7 19.6 2.5 25 10.1 SSW 13 19 7 10 1013.1 1012.9 0.0
19/08:00pm 24.5 19.8 3.2 25 10.4 SW 17 26 9 14 1012.9 1012.7 0.0
19/07:30pm 25.5 20.8 2.9 23 11.0 SW 17 28 9 15 1012.5 1012.3 0.0
19/07:00pm 26.2 21.1 2.8 22 11.5 SSW 19 33 10 18 1012.2 1012.0 0.0
19/06:30pm 25.9 20.6 1.9 21 11.5 SSW 19 32 10 17 1012.2 1012.0 0.0
19/06:00pm 26.5 22.0 2.4 21 11.7 SW 15 26 8 14 1012.0 1011.8 0.0
19/05:30pm 26.1 21.3 2.7 22 11.4 S 17 32 9 17 1012.0 1011.8 0.0
19/05:00pm 26.2 21.3 2.2 21 11.6 SSW 17 28 9 15 1012.1 1011.9 0.0
19/04:30pm 25.5 21.2 3.5 24 10.9 S 15 22 8 12 1012.1 1011.9 0.0
19/04:00pm 25.5 21.0 4.0 25 10.7 SSW 17 32 9 17 1012.5 1012.3 0.0
19/03:30pm 25.1 20.9 3.7 25 10.6 SSW 15 26 8 14 1012.9 1012.7 0.0
19/03:00pm 24.2 19.7 4.0 27 10.0 WSW 17 32 9 17 1013.3 1013.1 0.0
19/02:30pm 23.7 18.8 4.1 28 9.7 SSW 19 30 10 16 1013.6 1013.4 0.0
19/02:00pm 22.5 17.6 4.1 30 9.0 S 19 32 10 17 1013.8 1013.6 0.0
19/01:30pm 22.6 18.5 4.6 31 8.9 SSW 15 24 8 13 1014.2 1014.0 0.0
19/01:00pm 21.8 17.0 4.8 33 8.4 S 19 32 10 17 1014.4 1014.2 0.0
19/12:30pm 20.4 15.9 4.0 34 7.9 S 17 28 9 15 1014.9 1014.7 0.0
19/12:00pm 20.0 15.7 5.3 38 7.2 S 17 32 9 17 1015.3 1015.1 0.0
19/11:30am 20.0 15.9 6.0 40 7.0 S 17 28 9 15 1015.4 1015.2 0.0
19/11:00am 18.6 14.0 5.5 42 6.4 S 19 32 10 17 1015.6 1015.4 0.0
19/10:30am 18.3 13.9 6.5 46 5.9 S 19 30 10 16 1015.5 1015.3 0.0
19/10:00am 17.2 12.6 6.4 49 5.3 S 20 30 11 16 1015.4 1015.2 0.0
19/09:30am 16.4 12.8 6.8 53 4.7 S 15 24 8 13 1015.3 1015.1 0.0
19/09:00am 15.6 12.5 7.4 58 4.1 S 13 20 7 11 1015.2 1015.0 0.0
19/08:30am 14.0 11.0 7.5 65 3.2 S 13 17 7 9 1014.7 1014.5 0.0
19/08:00am 12.7 10.7 7.0 68 2.8 SSW 7 9 4 5 1014.5 1014.3 0.0
19/07:30am 12.0 9.5 6.7 70 2.5 SW 9 13 5 7 1014.3 1014.1 0.0
19/07:00am 12.3 9.9 6.8 69 2.6 SSW 9 17 5 9 1014.0 1013.8 0.0
19/06:30am 13.0 9.4 6.8 66 3.0 SSW 15 22 8 12 1013.8 1013.6 0.0
19/06:00am 13.3 10.1 6.9 65 3.1 SSW 13 20 7 11 1013.5 1013.3 0.0
19/05:30am 13.6 10.4 6.9 64 3.2 SSW 13 19 7 10 1013.3 1013.1 0.0
19/05:00am 14.1 10.2 6.9 62 3.5 SSW 17 28 9 15 1013.1 1012.9 0.0
19/04:30am 14.4 11.2 6.7 60 3.7 SSW 13 19 7 10 1012.9 1012.7 0.0
19/04:00am 14.7 10.8 7.0 60 3.8 SSW 17 24 9 13 1012.8 1012.6 0.0
19/03:30am 15.2 11.3 7.3 59 3.9 SSW 17 26 9 14 1012.5 1012.3 0.0
19/03:00am 15.4 11.6 7.4 59 4.0 SSW 17 30 9 16 1012.4 1012.2 0.0
19/02:30am 15.9 12.1 7.7 58 4.1 SSW 17 24 9 13 1012.5 1012.3 0.0
19/02:00am 16.6 12.8 7.5 55 4.6 SSW 17 32 9 17 1012.4 1012.2 0.0
19/01:30am 17.2 12.7 7.0 51 5.1 SSW 20 30 11 16 1012.2 1012.0 0.0
19/01:00am 17.8 14.3 7.2 50 5.3 SSW 15 28 8 15 1012.0 1011.8 0.0
19/12:30am 18.6 14.8 7.4 48 5.7 SSW 17 30 9 16 1011.6 1011.4 0.0
19/12:00am 19.4 14.7 7.8 47 6.0 SSW 22 37 12 20 1011.4 1011.2 0.0
 
Date/Time
EDT
Temp
°C
App
Temp
°C
Dew
Point
°C
Rel
Hum
%
Delta-T
°C
Wind Press
QNH
hPa
Press
MSL
hPa
Rain since
9am
mm
Dir  Spd
km/h
Gust
km/h
Spd
kts
Gust
kts
18/11:30pm 20.2 15.5 7.6 44 6.5 SSW 22 33 12 18 1011.2 1011.0 0.0
18/11:00pm 21.3 15.8 6.0 37 7.7 SSW 24 35 13 19 1010.9 1010.7 0.0
18/10:30pm 22.2 16.7 6.0 35 8.2 SSW 24 37 13 20 1010.4 1010.2 0.0
18/10:00pm 23.3 17.8 5.7 32 8.9 SW 24 35 13 19 1009.9 1009.7 0.0
18/09:30pm 24.4 19.6 4.7 28 9.9 SSW 19 35 10 19 1009.4 1009.2 0.0
18/09:00pm 25.3 20.3 4.4 26 10.5 SW 20 30 11 16 1008.8 1008.6 0.0

Other formats

Comma delimited format used in spreadsheet applications
http://www.bom.gov.au/fwo/IDV60801/IDV60801.94693.axf

JavaScript Object Notation format (JSON) in row-major order
http://www.bom.gov.au/fwo/IDV60801/IDV60801.94693.json

Data quality

Most of these data are generated automatically and are frequently updated. Quality checks on data are not normally performed. It is possible for incorrect values to appear. Refer to information at About Latest Weather Observations and please check the disclaimer before using these data.